createdAt,value
2018-11-05T00:00:37.372Z,38.37
2018-11-05T00:03:05.449Z,40.87
2018-11-05T00:05:32.849Z,42.97
2018-11-05T00:08:00.268Z,41.47
2018-11-05T00:10:27.646Z,42.60
2018-11-05T00:12:55.035Z,42.83
2018-11-05T00:15:22.445Z,42.67
2018-11-05T00:17:49.831Z,45.07
2018-11-05T00:20:17.234Z,45.37
2018-11-05T00:22:44.643Z,44.70
2018-11-05T00:25:12.994Z,44.53
2018-11-05T00:27:40.872Z,44.67
2018-11-05T00:30:08.983Z,43.33
2018-11-05T00:32:36.438Z,44.40
2018-11-05T00:35:04.001Z,42.87
2018-11-05T00:37:31.532Z,44.30
2018-11-05T00:39:58.985Z,42.70
2018-11-05T00:42:43.408Z,41.13
2018-11-05T00:45:11.646Z,41.00
2018-11-05T00:47:39.079Z,45.10
2018-11-05T00:50:09.637Z,43.93
2018-11-05T00:52:37.379Z,44.57
2018-11-05T00:55:04.937Z,44.00
2018-11-05T01:00:47.573Z,41.37
2018-11-05T01:03:14.945Z,43.03
2018-11-05T01:05:42.396Z,42.73
2018-11-05T01:08:09.797Z,42.03
2018-11-05T01:10:37.189Z,42.70
2018-11-05T01:13:04.816Z,41.40
2018-11-05T01:15:32.228Z,42.97
2018-11-05T01:17:59.633Z,42.67
2018-11-05T01:20:27.045Z,40.27
2018-11-05T01:22:54.461Z,40.77
2018-11-05T01:25:21.861Z,41.50
2018-11-05T01:27:49.243Z,39.03
2018-11-05T01:30:16.654Z,39.80
2018-11-05T01:32:44.058Z,40.67
2018-11-05T01:35:12.578Z,39.63
2018-11-05T01:37:40.109Z,39.60
2018-11-05T01:40:09.650Z,40.70
2018-11-05T01:42:37.400Z,40.63
2018-11-05T01:45:05.300Z,40.67
2018-11-05T01:47:32.717Z,39.43
2018-11-05T01:50:00.089Z,39.40
2018-11-05T01:52:27.521Z,41.07
2018-11-05T01:54:54.914Z,38.93
2018-11-05T01:57:22.305Z,37.63
2018-11-05T01:59:49.688Z,37.03
2018-11-05T02:02:17.148Z,37.57
2018-11-05T02:04:44.561Z,38.13
2018-11-05T02:07:11.972Z,37.37
2018-11-05T02:09:39.368Z,37.97
2018-11-05T02:12:06.788Z,35.53
2018-11-05T02:14:34.194Z,34.03
2018-11-05T02:17:01.557Z,34.73
2018-11-05T02:19:28.973Z,34.90
2018-11-05T02:21:56.369Z,35.10
2018-11-05T02:24:23.742Z,35.67
2018-11-05T02:26:51.113Z,35.57
2018-11-05T02:29:18.525Z,34.30
2018-11-05T02:31:45.920Z,34.00
2018-11-05T02:34:13.325Z,36.23
2018-11-05T02:36:40.721Z,36.33
2018-11-05T02:39:08.974Z,36.87
2018-11-05T02:41:36.357Z,37.03
2018-11-05T02:44:03.813Z,34.33
2018-11-05T02:46:31.210Z,35.80
2018-11-05T02:48:58.579Z,36.17
2018-11-05T02:51:25.977Z,36.43
2018-11-05T02:53:53.357Z,36.73
2018-11-05T02:56:20.851Z,34.90
2018-11-05T02:58:48.525Z,34.83
2018-11-05T03:01:15.917Z,36.33
2018-11-05T03:03:43.307Z,34.90
2018-11-05T03:07:39.975Z,35.63
2018-11-05T03:10:08.177Z,35.27
2018-11-05T03:12:35.593Z,35.20
2018-11-05T03:15:03.400Z,34.60
2018-11-05T03:17:30.778Z,35.67
2018-11-05T03:19:58.180Z,32.17
2018-11-05T03:22:25.582Z,36.07
2018-11-05T03:24:52.952Z,34.73
2018-11-05T03:27:20.337Z,34.13
2018-11-05T03:29:47.716Z,35.10
2018-11-05T03:32:15.100Z,35.60
2018-11-05T03:34:42.610Z,36.00
2018-11-05T03:37:10.017Z,35.40
2018-11-05T03:39:37.421Z,34.77
2018-11-05T03:42:05.235Z,34.30
2018-11-05T03:44:32.685Z,34.60
2018-11-05T03:47:00.066Z,34.40
2018-11-05T03:49:27.457Z,34.47
2018-11-05T03:51:54.848Z,36.33
2018-11-05T03:54:22.236Z,33.60
2018-11-05T03:56:49.714Z,35.57
2018-11-05T03:59:17.074Z,35.57
2018-11-05T04:01:44.442Z,36.97
2018-11-05T04:04:11.816Z,37.67
2018-11-05T04:06:39.353Z,38.27
2018-11-05T04:09:07.921Z,36.50
2018-11-05T04:11:35.284Z,37.73
2018-11-05T04:14:02.814Z,39.37
2018-11-05T04:16:30.221Z,39.37
2018-11-05T04:18:57.626Z,39.07
2018-11-05T04:21:29.525Z,38.77
2018-11-05T04:23:56.907Z,38.40
2018-11-05T04:26:24.281Z,40.77
2018-11-05T04:28:51.707Z,39.73
2018-11-05T04:31:19.077Z,39.07
2018-11-05T04:33:46.449Z,40.47
2018-11-05T04:36:13.857Z,43.03
2018-11-05T04:38:41.288Z,41.90
2018-11-05T04:41:08.664Z,38.67
2018-11-05T04:43:36.069Z,39.60
2018-11-05T04:46:03.509Z,37.67
2018-11-05T04:48:30.908Z,37.87
2018-11-05T04:50:58.308Z,40.37
2018-11-05T04:53:25.725Z,41.10
2018-11-05T04:55:53.176Z,40.57
2018-11-05T04:58:20.627Z,39.03
2018-11-05T05:00:48.018Z,39.33
2018-11-05T05:03:15.425Z,40.80
2018-11-05T05:05:42.856Z,40.43
2018-11-05T05:08:10.228Z,37.83
2018-11-05T05:10:37.716Z,38.90
2018-11-05T05:13:05.201Z,39.73
2018-11-05T05:15:32.572Z,44.87
2018-11-05T05:18:00.041Z,37.80
2018-11-05T05:20:27.449Z,38.73
2018-11-05T05:22:55.015Z,38.10
2018-11-05T05:25:22.283Z,39.47
2018-11-05T05:27:49.785Z,38.23
2018-11-05T05:30:18.535Z,38.30
2018-11-05T05:32:46.924Z,40.00
2018-11-05T05:35:14.679Z,39.03
2018-11-05T05:37:42.553Z,40.73
2018-11-05T05:40:10.161Z,40.43
2018-11-05T05:42:38.108Z,40.03
2018-11-05T05:45:06.215Z,42.73
2018-11-05T05:47:33.652Z,41.77
2018-11-05T05:50:01.067Z,43.07
2018-11-05T05:52:28.431Z,40.93
2018-11-05T05:54:55.797Z,42.83
2018-11-05T05:57:23.204Z,41.80
2018-11-05T05:59:50.654Z,42.83
2018-11-05T06:02:17.983Z,43.17
2018-11-05T06:04:45.384Z,41.80
2018-11-05T06:07:12.793Z,42.77
2018-11-05T06:09:40.153Z,39.93
2018-11-05T06:12:07.553Z,40.27
2018-11-05T06:14:34.984Z,41.13
2018-11-05T06:17:02.362Z,42.33
2018-11-05T06:19:29.804Z,41.57
2018-11-05T06:21:57.262Z,44.30
2018-11-05T06:24:24.568Z,43.83
2018-11-05T06:26:52.269Z,42.20
2018-11-05T06:29:19.662Z,47.47
2018-11-05T06:31:47.021Z,40.57
2018-11-05T06:34:14.442Z,42.53
2018-11-05T06:36:41.812Z,42.40
2018-11-05T06:39:10.877Z,40.03
2018-11-05T06:41:38.485Z,43.67
2018-11-05T06:44:05.908Z,42.73
2018-11-05T06:46:33.282Z,44.00
2018-11-05T06:49:00.778Z,42.30
2018-11-05T06:51:28.091Z,42.40
2018-11-05T06:53:55.477Z,44.70
2018-11-05T06:56:22.904Z,41.77
2018-11-05T06:58:50.326Z,41.80
2018-11-05T07:01:17.793Z,43.70
2018-11-05T07:03:45.189Z,42.13
2018-11-05T07:06:12.561Z,42.87
2018-11-05T07:08:40.180Z,43.87
2018-11-05T07:11:07.658Z,41.53
2018-11-05T07:13:35.170Z,42.37
2018-11-05T07:16:02.552Z,41.23
2018-11-05T07:18:30.131Z,41.60
2018-11-05T07:20:57.382Z,39.90
2018-11-05T07:23:24.781Z,43.53
2018-11-05T07:25:52.185Z,40.57
2018-11-05T07:28:19.569Z,40.90
2018-11-05T07:30:46.976Z,39.77
2018-11-05T07:33:14.382Z,39.60
2018-11-05T07:35:41.761Z,40.50
2018-11-05T07:38:09.146Z,40.07
2018-11-05T07:43:52.736Z,36.57
2018-11-05T07:46:20.257Z,36.40
2018-11-05T07:48:47.630Z,40.30
2018-11-05T07:51:15.077Z,35.37
2018-11-05T07:53:42.453Z,37.93
2018-11-05T07:56:09.871Z,36.70
2018-11-05T07:58:37.272Z,36.13
2018-11-05T08:01:05.100Z,34.53
2018-11-05T08:03:32.573Z,34.20
2018-11-05T08:05:59.981Z,34.07
2018-11-05T08:08:27.421Z,30.73
2018-11-05T08:10:54.749Z,30.07
2018-11-05T08:20:09.305Z,29.47
2018-11-05T08:22:36.845Z,29.60
2018-11-05T08:25:04.301Z,26.87
2018-11-05T08:27:31.836Z,26.47
2018-11-05T08:29:59.223Z,24.43
2018-11-05T08:32:26.595Z,25.63
2018-11-05T08:34:54.041Z,24.10
2018-11-05T08:37:21.449Z,22.80
2018-11-05T08:39:48.853Z,23.13
2018-11-05T08:42:16.253Z,22.57
2018-11-05T08:44:43.688Z,22.63
2018-11-05T08:47:11.088Z,21.10
2018-11-05T08:49:38.492Z,20.20
2018-11-05T08:52:05.848Z,21.20
2018-11-05T08:54:33.281Z,20.57
2018-11-05T08:57:00.676Z,21.20
2018-11-05T08:59:28.103Z,20.23
2018-11-05T09:01:55.458Z,19.63
2018-11-05T09:04:22.905Z,20.03
2018-11-05T09:06:51.934Z,20.50
2018-11-05T09:09:19.302Z,20.13
2018-11-05T09:11:46.887Z,19.80
2018-11-05T09:14:14.217Z,19.50
2018-11-05T09:16:41.617Z,18.33
2018-11-05T09:19:09.413Z,18.30
2018-11-05T09:21:36.764Z,17.27
2018-11-05T09:24:04.210Z,17.40
2018-11-05T09:26:31.637Z,17.30
2018-11-05T09:28:58.998Z,17.60
2018-11-05T09:31:26.489Z,17.23
2018-11-05T09:33:53.881Z,17.63
2018-11-05T09:36:21.290Z,17.07
2018-11-05T09:38:48.665Z,16.87
2018-11-05T09:41:16.057Z,18.47
2018-11-05T09:43:43.433Z,17.63
2018-11-05T09:46:10.824Z,16.37
2018-11-05T09:48:38.233Z,16.27
2018-11-05T09:51:05.589Z,16.20
2018-11-05T09:53:32.973Z,15.60
2018-11-05T09:56:00.355Z,17.33
2018-11-05T09:58:27.792Z,16.43
2018-11-05T10:00:55.144Z,16.47
2018-11-05T10:03:22.705Z,16.83
2018-11-05T10:05:49.916Z,16.20
2018-11-05T10:08:17.712Z,17.10
2018-11-05T10:10:45.117Z,17.27
2018-11-05T10:13:12.516Z,16.77
2018-11-05T10:15:39.888Z,16.77
2018-11-05T10:18:07.403Z,16.30
2018-11-05T10:20:34.771Z,15.77
2018-11-05T10:23:02.141Z,15.37
2018-11-05T10:25:29.544Z,16.70
2018-11-05T10:28:01.993Z,15.77
2018-11-05T10:30:29.654Z,15.87
2018-11-05T10:32:57.061Z,14.97
2018-11-05T10:35:29.756Z,14.87
2018-11-05T10:37:57.125Z,15.73
2018-11-05T10:40:24.552Z,15.97
2018-11-05T10:42:51.982Z,16.17
2018-11-05T10:45:19.465Z,15.93
2018-11-05T10:47:46.843Z,15.80
2018-11-05T10:50:15.496Z,15.43
2018-11-05T10:52:43.946Z,17.43
2018-11-05T10:55:11.374Z,16.80
2018-11-05T10:57:39.369Z,16.80
2018-11-05T11:00:12.587Z,17.37
2018-11-05T11:02:40.533Z,18.40
2018-11-05T11:05:07.938Z,18.17
2018-11-05T11:07:35.314Z,17.37
2018-11-05T11:10:02.742Z,17.23
2018-11-05T11:12:30.094Z,17.20
2018-11-05T11:14:57.450Z,17.90
2018-11-05T11:17:24.840Z,18.27
2018-11-05T11:19:52.191Z,18.03
2018-11-05T11:22:19.557Z,17.73
2018-11-05T11:24:46.944Z,17.67
2018-11-05T11:27:14.345Z,17.20
2018-11-05T11:30:02.425Z,17.50
2018-11-05T11:32:29.778Z,17.70
2018-11-05T11:34:57.477Z,16.00
2018-11-05T11:37:24.868Z,16.97
2018-11-05T11:39:52.233Z,17.83
2018-11-05T11:42:19.609Z,17.57
2018-11-05T11:44:46.999Z,16.97
2018-11-05T11:47:14.362Z,16.33
2018-11-05T11:49:41.718Z,17.23
2018-11-05T11:52:09.247Z,18.37
2018-11-05T11:54:36.703Z,20.83
2018-11-05T11:57:04.097Z,19.63
2018-11-05T11:59:31.484Z,20.43
2018-11-05T12:02:04.165Z,19.70
2018-11-05T12:04:31.572Z,19.23
2018-11-05T12:06:58.933Z,19.80
2018-11-05T12:09:26.341Z,20.23
2018-11-05T12:11:53.748Z,19.47
2018-11-05T12:14:21.147Z,19.03
2018-11-05T12:16:48.514Z,19.50
2018-11-05T12:19:16.029Z,19.13
2018-11-05T12:21:43.398Z,18.80
2018-11-05T12:24:10.750Z,18.20
2018-11-05T12:26:38.258Z,18.87
2018-11-05T12:39:10.022Z,17.37
2018-11-05T12:41:37.603Z,17.40
2018-11-05T12:44:05.174Z,18.23
2018-11-05T12:46:32.574Z,19.43
2018-11-05T12:49:00.004Z,18.53
2018-11-05T12:51:27.372Z,19.20
2018-11-05T12:53:54.763Z,19.47
2018-11-05T12:56:22.125Z,18.87
2018-11-05T12:58:49.510Z,18.73
2018-11-05T13:01:16.901Z,19.60
2018-11-05T13:03:44.301Z,19.67
2018-11-05T13:06:11.709Z,20.70
2018-11-05T13:08:39.106Z,19.03
2018-11-05T13:11:06.489Z,18.63
2018-11-05T13:13:33.857Z,19.97
2018-11-05T13:16:01.258Z,19.63
2018-11-05T13:18:28.740Z,20.43
2018-11-05T13:20:56.123Z,19.60
2018-11-05T13:23:28.924Z,18.97
2018-11-05T13:25:56.301Z,19.73
2018-11-05T13:28:23.721Z,20.73
2018-11-05T13:30:51.097Z,20.93
2018-11-05T13:33:18.453Z,20.50
2018-11-05T13:35:46.443Z,20.90
2018-11-05T13:38:14.385Z,18.87
2018-11-05T13:40:41.310Z,19.70
2018-11-05T13:43:08.690Z,20.77
2018-11-05T13:45:36.487Z,19.37
2018-11-05T13:48:04.000Z,19.73
2018-11-05T13:50:31.566Z,19.17
2018-11-05T13:52:58.504Z,19.30
2018-11-05T13:55:25.897Z,18.27
2018-11-05T13:57:53.260Z,18.93
2018-11-05T14:00:21.316Z,21.33
2018-11-05T14:02:49.087Z,21.03
2018-11-05T14:05:16.489Z,20.33
2018-11-05T14:07:43.977Z,21.40
2018-11-05T14:10:13.019Z,20.60
2018-11-05T14:12:40.735Z,22.20
2018-11-05T14:15:08.252Z,22.10
2018-11-05T14:17:35.679Z,20.40
2018-11-05T14:20:03.130Z,21.20
2018-11-05T14:22:30.537Z,19.40
2018-11-05T14:24:57.929Z,19.53
2018-11-05T14:27:25.346Z,21.13
2018-11-05T14:29:53.266Z,22.47
2018-11-05T14:32:20.291Z,20.40
2018-11-05T14:34:47.679Z,21.03
2018-11-05T14:37:15.121Z,20.27
2018-11-05T14:39:42.518Z,21.43
2018-11-05T14:42:09.926Z,21.10
2018-11-05T14:44:37.321Z,21.13
2018-11-05T14:47:04.721Z,21.23
2018-11-05T14:49:32.100Z,22.83
2018-11-05T14:51:59.512Z,20.87
2018-11-05T14:54:26.893Z,21.27
2018-11-05T14:56:54.253Z,20.87
2018-11-05T14:59:21.677Z,22.23
2018-11-05T15:01:53.362Z,21.03
2018-11-05T15:04:20.842Z,22.13
2018-11-05T15:06:48.230Z,21.43
2018-11-05T15:09:15.609Z,20.70
2018-11-05T15:11:42.982Z,21.83
2018-11-05T15:14:10.377Z,21.27
2018-11-05T15:16:37.812Z,22.03
2018-11-05T15:19:05.836Z,22.40
2018-11-05T15:21:33.169Z,21.57
2018-11-05T15:24:00.525Z,23.80
2018-11-05T15:26:27.912Z,27.00
2018-11-05T15:28:55.320Z,25.13
2018-11-05T15:31:22.695Z,24.27
2018-11-05T15:33:51.085Z,24.57
2018-11-05T15:36:18.474Z,26.53
2018-11-05T15:38:45.835Z,30.93
2018-11-05T15:41:13.209Z,31.80
2018-11-05T15:43:40.601Z,29.93
2018-11-05T15:46:07.985Z,30.90
2018-11-05T15:48:35.377Z,30.43
2018-11-05T15:51:02.833Z,26.80
2018-11-05T15:53:30.576Z,27.60
2018-11-05T15:55:57.637Z,28.57
2018-11-05T15:58:25.028Z,27.63
2018-11-05T16:00:52.416Z,28.87
2018-11-05T16:03:19.797Z,27.17
2018-11-05T16:05:47.237Z,28.47
2018-11-05T16:08:14.615Z,30.33
2018-11-05T16:10:42.041Z,29.30
2018-11-05T16:13:09.578Z,28.57
2018-11-05T16:15:36.986Z,24.27
2018-11-05T16:18:04.376Z,23.70
2018-11-05T16:20:31.806Z,20.27
2018-11-05T16:22:59.169Z,20.37
2018-11-05T16:25:26.542Z,16.27
2018-11-05T16:27:53.957Z,12.67
2018-11-05T16:30:22.001Z,11.50
2018-11-05T16:32:49.929Z,11.67
2018-11-05T16:35:17.345Z,10.17
2018-11-05T16:37:44.720Z,11.53
2018-11-05T16:40:13.810Z,10.67
2018-11-05T16:42:41.477Z,10.67
2018-11-05T16:45:09.570Z,11.60
2018-11-05T16:47:37.425Z,10.63
2018-11-05T16:50:06.833Z,10.27
2018-11-05T16:52:34.202Z,10.57
2018-11-05T16:55:01.577Z,12.33
2018-11-05T16:57:29.034Z,13.37
2018-11-05T16:59:56.361Z,15.27
2018-11-05T17:02:23.910Z,12.50
2018-11-05T17:04:51.128Z,12.20
2018-11-05T17:07:18.520Z,11.20
2018-11-05T17:09:46.026Z,12.33
2018-11-05T17:12:13.437Z,12.63
2018-11-05T17:14:40.831Z,14.07
2018-11-05T17:17:08.217Z,13.10
2018-11-05T17:19:35.635Z,14.57
2018-11-05T17:22:03.036Z,13.90
2018-11-05T17:24:30.419Z,12.80
2018-11-05T17:26:57.838Z,12.73
2018-11-05T17:29:25.260Z,14.17
2018-11-05T17:31:52.634Z,13.17
2018-11-05T17:34:20.121Z,13.47
2018-11-05T17:36:47.573Z,14.53
2018-11-05T17:39:14.962Z,15.03
2018-11-05T17:41:42.745Z,14.17
2018-11-05T17:44:11.608Z,15.73
2018-11-05T17:46:39.031Z,16.33
2018-11-05T17:49:07.018Z,16.27
2018-11-05T17:51:34.421Z,16.27
2018-11-05T17:54:01.965Z,16.10
2018-11-05T17:56:29.571Z,15.90
2018-11-05T17:58:57.057Z,16.70
2018-11-05T18:01:24.550Z,15.60
2018-11-05T18:03:52.002Z,15.67
2018-11-05T18:06:19.394Z,16.47
2018-11-05T18:08:46.792Z,16.33
2018-11-05T18:11:14.237Z,16.73
2018-11-05T18:13:41.646Z,16.93
2018-11-05T18:16:09.017Z,15.93
2018-11-05T18:18:36.522Z,15.90
2018-11-05T18:21:03.952Z,15.10
2018-11-05T18:23:31.386Z,16.00
2018-11-05T18:25:58.816Z,16.03
2018-11-05T18:28:26.217Z,16.13
2018-11-05T18:30:53.641Z,16.27
2018-11-05T18:33:21.053Z,15.83
2018-11-05T18:35:48.445Z,18.27
2018-11-05T18:38:15.890Z,16.77
2018-11-05T18:40:43.293Z,13.67
2018-11-05T18:43:10.733Z,15.40
2018-11-05T18:45:38.227Z,16.00
2018-11-05T18:48:05.623Z,15.53
2018-11-05T18:50:32.997Z,14.00
2018-11-05T18:53:00.383Z,16.33
2018-11-05T18:55:27.826Z,14.93
2018-11-05T18:57:55.204Z,14.77
2018-11-05T19:00:24.856Z,15.40
2018-11-05T19:02:53.162Z,14.30
2018-11-05T19:05:21.316Z,14.93
2018-11-05T19:07:49.734Z,13.67
2018-11-05T19:10:17.136Z,14.13
2018-11-05T19:12:44.519Z,20.40
2018-11-05T19:15:13.258Z,13.77
2018-11-05T19:17:40.954Z,15.43
2018-11-05T19:20:08.866Z,14.27
2018-11-05T19:22:36.535Z,15.27
2018-11-05T19:28:20.416Z,14.47
2018-11-05T19:30:47.826Z,15.80
2018-11-05T19:33:15.232Z,15.23
2018-11-05T19:35:42.609Z,14.33
2018-11-05T19:38:10.005Z,15.17
2018-11-05T19:40:37.366Z,15.10
2018-11-05T19:43:08.745Z,16.30
2018-11-05T19:45:36.194Z,15.30
2018-11-05T19:48:03.562Z,16.20
2018-11-05T19:50:31.004Z,15.87
2018-11-05T19:52:58.416Z,15.57
2018-11-05T19:55:25.781Z,15.80
2018-11-05T19:57:53.597Z,15.50
2018-11-05T20:00:28.469Z,15.83
2018-11-05T20:02:56.864Z,15.53
2018-11-05T20:05:25.272Z,16.40
2018-11-05T20:07:53.201Z,16.93
2018-11-05T20:10:20.617Z,15.77
2018-11-05T20:12:48.090Z,16.17
2018-11-05T20:15:15.734Z,20.20
2018-11-05T20:17:44.067Z,16.37
2018-11-05T20:20:12.645Z,17.37
2018-11-05T20:22:40.104Z,14.70
2018-11-05T20:25:08.145Z,15.23
2018-11-05T20:27:36.065Z,16.87
2018-11-05T20:30:03.592Z,17.93
2018-11-05T20:32:31.488Z,15.63
2018-11-05T20:34:58.571Z,16.17
2018-11-05T20:37:26.166Z,14.80
2018-11-05T20:39:53.701Z,14.40
2018-11-05T20:42:21.076Z,12.87
2018-11-05T20:44:48.488Z,13.23
2018-11-05T20:47:15.917Z,12.67
2018-11-05T20:49:43.381Z,15.10
2018-11-05T20:52:10.773Z,15.07
2018-11-05T20:54:38.281Z,12.23
2018-11-05T20:57:05.880Z,12.83
2018-11-05T20:59:33.318Z,13.53
2018-11-05T21:02:00.755Z,13.73
2018-11-05T21:04:28.158Z,11.90
2018-11-05T21:06:55.630Z,12.57
2018-11-05T21:09:23.085Z,12.80
2018-11-05T21:11:50.485Z,14.07
2018-11-05T21:14:17.914Z,12.63
2018-11-05T21:16:45.330Z,12.13
2018-11-05T21:19:12.704Z,29.97
2018-11-05T21:21:40.303Z,18.03
2018-11-05T21:24:07.933Z,16.93
2018-11-05T21:26:35.529Z,21.30
2018-11-05T21:29:02.915Z,16.50
2018-11-05T21:31:30.329Z,13.93
2018-11-05T21:36:25.069Z,12.77
2018-11-05T21:38:52.508Z,13.17
2018-11-05T21:41:19.889Z,11.97
2018-11-05T21:43:47.261Z,11.90
2018-11-05T21:46:14.659Z,11.40
2018-11-05T21:48:42.141Z,13.67
2018-11-05T21:51:09.549Z,12.20
2018-11-05T21:53:36.980Z,11.90
2018-11-05T21:56:04.431Z,13.60
2018-11-05T21:58:31.812Z,12.60
2018-11-05T22:00:59.216Z,12.83
2018-11-05T22:03:26.661Z,11.80
2018-11-05T22:05:54.023Z,12.70
2018-11-05T22:08:21.474Z,12.13
2018-11-05T22:10:48.902Z,11.67
2018-11-05T22:13:16.369Z,11.50
2018-11-05T22:15:44.831Z,10.83
2018-11-05T22:18:12.274Z,11.07
2018-11-05T22:20:39.674Z,10.80
2018-11-05T22:23:07.113Z,10.63
2018-11-05T22:25:34.569Z,10.30
2018-11-05T22:28:02.001Z,12.23
2018-11-05T22:30:29.411Z,12.63
2018-11-05T22:32:56.786Z,11.60
2018-11-05T22:35:24.165Z,11.97
2018-11-05T22:37:51.646Z,13.27
2018-11-05T22:40:19.017Z,11.47
2018-11-05T22:42:46.432Z,11.40
2018-11-05T22:45:14.844Z,11.63
2018-11-05T22:47:42.780Z,11.53
2018-11-05T22:50:10.296Z,12.20
2018-11-05T22:52:38.014Z,12.30
2018-11-05T22:55:05.808Z,18.63
2018-11-05T22:57:33.429Z,13.83
2018-11-05T23:00:01.045Z,14.37
2018-11-05T23:02:28.434Z,14.53
2018-11-05T23:04:55.830Z,13.43
2018-11-05T23:07:23.243Z,15.17
2018-11-05T23:09:50.690Z,13.83
2018-11-05T23:12:18.097Z,13.23
2018-11-05T23:14:45.516Z,12.97
2018-11-05T23:17:13.062Z,12.73
2018-11-05T23:19:40.442Z,12.57
2018-11-05T23:22:07.897Z,12.90
2018-11-05T23:24:35.624Z,14.57
2018-11-05T23:27:03.009Z,12.53
2018-11-05T23:29:30.412Z,12.83
2018-11-05T23:31:57.797Z,13.23
2018-11-05T23:34:25.168Z,13.30
2018-11-05T23:36:52.870Z,12.83
2018-11-05T23:39:20.261Z,13.50
2018-11-05T23:41:47.645Z,12.87
2018-11-05T23:44:15.061Z,13.07
2018-11-05T23:46:42.446Z,14.03
2018-11-05T23:49:09.833Z,13.20
2018-11-05T23:51:37.282Z,12.77
2018-11-05T23:54:04.793Z,12.77
2018-11-05T23:56:32.160Z,11.93
2018-11-05T23:58:59.572Z,12.07
